sensor_id;sensor_type;location;lat;lon;timestamp;pressure;altitude;pressure_sealevel;temperature;humidity
42887;BME280;29032;56.028;92.904;2023-01-29T00:01:15;99085.69;;;-5.07;39.18
42887;BME280;29032;56.028;92.904;2023-01-29T00:06:17;99084.34;;;-5.12;39.14
42887;BME280;29032;56.028;92.904;2023-01-29T00:11:21;99086.63;;;-5.20;39.31
42887;BME280;29032;56.028;92.904;2023-01-29T00:16:23;99086.31;;;-5.40;38.83
42887;BME280;29032;56.028;92.904;2023-01-29T00:21:25;99085.09;;;-5.48;38.99
42887;BME280;29032;56.028;92.904;2023-01-29T00:26:29;99088.72;;;-5.51;39.16
42887;BME280;29032;56.028;92.904;2023-01-29T00:31:33;99099.31;;;-5.62;38.22
42887;BME280;29032;56.028;92.904;2023-01-29T00:36:35;99090.53;;;-5.66;38.34
42887;BME280;29032;56.028;92.904;2023-01-29T00:41:38;99096.31;;;-5.55;38.11
42887;BME280;29032;56.028;92.904;2023-01-29T00:46:41;99087.34;;;-5.65;37.10
42887;BME280;29032;56.028;92.904;2023-01-29T00:51:43;99080.25;;;-5.62;37.16
42887;BME280;29032;56.028;92.904;2023-01-29T00:56:46;99075.09;;;-5.69;36.55
42887;BME280;29032;56.028;92.904;2023-01-29T01:01:48;99077.06;;;-5.61;36.80
42887;BME280;29032;56.028;92.904;2023-01-29T01:06:50;99073.88;;;-5.59;36.48
42887;BME280;29032;56.028;92.904;2023-01-29T01:11:54;99074.50;;;-5.64;36.29
42887;BME280;29032;56.028;92.904;2023-01-29T01:16:56;99062.38;;;-5.63;35.58
42887;BME280;29032;56.028;92.904;2023-01-29T01:21:58;99079.78;;;-5.61;35.56
42887;BME280;29032;56.028;92.904;2023-01-29T01:27:02;99077.38;;;-5.50;35.72
42887;BME280;29032;56.028;92.904;2023-01-29T01:32:04;99071.94;;;-5.40;35.47
42887;BME280;29032;56.028;92.904;2023-01-29T01:37:07;99069.03;;;-5.37;34.60
42887;BME280;29032;56.028;92.904;2023-01-29T01:42:12;99049.34;;;-5.32;33.60
42887;BME280;29032;56.028;92.904;2023-01-29T01:47:15;99066.91;;;-5.24;34.13
42887;BME280;29032;56.028;92.904;2023-01-29T01:52:19;99025.09;;;-5.30;33.37
42887;BME280;29032;56.028;92.904;2023-01-29T01:57:24;99029.63;;;-5.18;33.50
42887;BME280;29032;56.028;92.904;2023-01-29T02:02:28;99023.53;;;-4.94;35.15
42887;BME280;29032;56.028;92.904;2023-01-29T02:07:31;99029.63;;;-5.08;33.30
42887;BME280;29032;56.028;92.904;2023-01-29T02:12:35;99026.00;;;-5.14;33.04
42887;BME280;29032;56.028;92.904;2023-01-29T02:17:38;99031.75;;;-5.12;32.83
42887;BME280;29032;56.028;92.904;2023-01-29T02:23:02;99034.47;;;-5.03;32.48
42887;BME280;29032;56.028;92.904;2023-01-29T02:28:29;99037.63;;;-4.96;32.92
42887;BME280;29032;56.028;92.904;2023-01-29T02:33:40;99036.88;;;-4.96;32.79
42887;BME280;29032;56.028;92.904;2023-01-29T02:38:49;99040.66;;;-4.94;32.29
42887;BME280;29032;56.028;92.904;2023-01-29T02:44:02;99028.22;;;-4.85;32.20
42887;BME280;29032;56.028;92.904;2023-01-29T02:49:10;99015.00;;;-4.78;31.73
42887;BME280;29032;56.028;92.904;2023-01-29T02:54:21;99017.88;;;-4.72;31.52
42887;BME280;29032;56.028;92.904;2023-01-29T02:59:31;99016.19;;;-4.70;32.08
42887;BME280;29032;56.028;92.904;2023-01-29T03:04:38;99014.34;;;-4.64;31.47
42887;BME280;29032;56.028;92.904;2023-01-29T03:09:47;99014.00;;;-4.56;32.05
42887;BME280;29032;56.028;92.904;2023-01-29T03:14:56;99023.84;;;-4.50;31.41
42887;BME280;29032;56.028;92.904;2023-01-29T03:20:00;99038.25;;;-4.49;30.84
42887;BME280;29032;56.028;92.904;2023-01-29T03:25:04;99039.47;;;-4.59;30.55
42887;BME280;29032;56.028;92.904;2023-01-29T03:30:13;99059.69;;;-4.66;31.04
42887;BME280;29032;56.028;92.904;2023-01-29T03:35:35;99045.31;;;-4.76;30.96
42887;BME280;29032;56.028;92.904;2023-01-29T03:40:44;99038.16;;;-4.73;30.44
42887;BME280;29032;56.028;92.904;2023-01-29T03:45:59;99034.56;;;-4.79;30.49
42887;BME280;29032;56.028;92.904;2023-01-29T03:51:15;99026.50;;;-4.74;30.55
42887;BME280;29032;56.028;92.904;2023-01-29T03:56:33;99026.94;;;-4.66;30.93
42887;BME280;29032;56.028;92.904;2023-01-29T04:01:44;99025.84;;;-4.59;30.61
42887;BME280;29032;56.028;92.904;2023-01-29T04:06:50;99015.50;;;-4.55;29.88
42887;BME280;29032;56.028;92.904;2023-01-29T04:11:58;99017.03;;;-4.54;29.72
42887;BME280;29032;56.028;92.904;2023-01-29T04:17:10;99004.59;;;-4.55;29.88
42887;BME280;29032;56.028;92.904;2023-01-29T04:22:23;98986.00;;;-4.66;29.62
42887;BME280;29032;56.028;92.904;2023-01-29T04:27:38;98977.72;;;-4.48;29.50
42887;BME280;29032;56.028;92.904;2023-01-29T04:32:54;98997.84;;;-4.45;29.99
42887;BME280;29032;56.028;92.904;2023-01-29T04:38:07;98992.59;;;-4.49;30.47
42887;BME280;29032;56.028;92.904;2023-01-29T04:43:16;98999.47;;;-4.63;29.63
42887;BME280;29032;56.028;92.904;2023-01-29T04:48:24;99007.31;;;-4.55;29.77
42887;BME280;29032;56.028;92.904;2023-01-29T04:53:36;99001.78;;;-4.37;30.33
42887;BME280;29032;56.028;92.904;2023-01-29T04:58:47;98997.97;;;-4.30;30.25
42887;BME280;29032;56.028;92.904;2023-01-29T05:03:53;99004.03;;;-4.36;29.41
42887;BME280;29032;56.028;92.904;2023-01-29T05:08:56;98993.69;;;-4.55;29.17
42887;BME280;29032;56.028;92.904;2023-01-29T05:14:02;98997.44;;;-4.53;29.57
42887;BME280;29032;56.028;92.904;2023-01-29T05:19:09;99003.38;;;-4.54;29.64
42887;BME280;29032;56.028;92.904;2023-01-29T05:24:14;98998.78;;;-4.48;30.00
42887;BME280;29032;56.028;92.904;2023-01-29T05:29:16;99002.75;;;-4.49;29.74
42887;BME280;29032;56.028;92.904;2023-01-29T05:34:20;98992.91;;;-4.56;29.98
42887;BME280;29032;56.028;92.904;2023-01-29T05:39:22;98995.22;;;-4.64;29.87
42887;BME280;29032;56.028;92.904;2023-01-29T05:44:24;99002.00;;;-4.50;30.04
42887;BME280;29032;56.028;92.904;2023-01-29T05:49:28;99007.28;;;-4.46;29.89
42887;BME280;29032;56.028;92.904;2023-01-29T05:54:30;98995.78;;;-4.50;29.26
42887;BME280;29032;56.028;92.904;2023-01-29T05:59:32;98988.50;;;-4.53;29.77
42887;BME280;29032;56.028;92.904;2023-01-29T06:04:36;98982.75;;;-4.55;29.06
42887;BME280;29032;56.028;92.904;2023-01-29T06:09:38;98997.69;;;-4.66;28.96
42887;BME280;29032;56.028;92.904;2023-01-29T06:14:40;98983.72;;;-4.68;29.16
42887;BME280;29032;56.028;92.904;2023-01-29T06:19:44;98978.84;;;-4.64;29.28
42887;BME280;29032;56.028;92.904;2023-01-29T06:24:46;98974.56;;;-4.55;29.06
42887;BME280;29032;56.028;92.904;2023-01-29T06:29:48;98972.31;;;-4.57;29.22
42887;BME280;29032;56.028;92.904;2023-01-29T06:34:52;98975.44;;;-4.49;28.98
42887;BME280;29032;56.028;92.904;2023-01-29T06:39:54;98976.97;;;-4.48;29.29
42887;BME280;29032;56.028;92.904;2023-01-29T06:44:56;98971.44;;;-4.39;29.03
42887;BME280;29032;56.028;92.904;2023-01-29T06:50:01;98968.41;;;-4.17;28.73
42887;BME280;29032;56.028;92.904;2023-01-29T06:55:04;98965.84;;;-3.97;28.79
42887;BME280;29032;56.028;92.904;2023-01-29T07:00:07;98964.97;;;-3.79;28.63
42887;BME280;29032;56.028;92.904;2023-01-29T07:05:11;98971.31;;;-3.73;28.44
42887;BME280;29032;56.028;92.904;2023-01-29T07:10:13;98969.47;;;-3.76;28.37
42887;BME280;29032;56.028;92.904;2023-01-29T07:15:15;98952.06;;;-3.78;28.54
42887;BME280;29032;56.028;92.904;2023-01-29T07:20:19;98957.25;;;-3.66;28.45
42887;BME280;29032;56.028;92.904;2023-01-29T07:25:21;98952.72;;;-3.54;28.77
42887;BME280;29032;56.028;92.904;2023-01-29T07:30:24;98953.59;;;-3.33;27.77
42887;BME280;29032;56.028;92.904;2023-01-29T07:35:56;98944.38;;;-2.71;28.48
42887;BME280;29032;56.028;92.904;2023-01-29T07:40:58;98940.75;;;-2.62;27.37
42887;BME280;29032;56.028;92.904;2023-01-29T07:46:34;98962.34;;;-2.50;28.52
42887;BME280;29032;56.028;92.904;2023-01-29T07:51:38;98940.22;;;-2.66;27.20
42887;BME280;29032;56.028;92.904;2023-01-29T07:56:40;98948.56;;;-2.90;27.51
42887;BME280;29032;56.028;92.904;2023-01-29T08:01:42;98950.41;;;-3.17;27.65
42887;BME280;29032;56.028;92.904;2023-01-29T08:06:46;98941.34;;;-3.23;27.91
42887;BME280;29032;56.028;92.904;2023-01-29T08:11:48;98948.22;;;-3.28;28.07
42887;BME280;29032;56.028;92.904;2023-01-29T08:16:50;98954.44;;;-3.27;28.16
42887;BME280;29032;56.028;92.904;2023-01-29T08:21:53;98945.59;;;-3.37;27.63
42887;BME280;29032;56.028;92.904;2023-01-29T08:26:56;98948.22;;;-3.57;28.28
42887;BME280;29032;56.028;92.904;2023-01-29T08:31:58;98950.84;;;-3.63;28.21
42887;BME280;29032;56.028;92.904;2023-01-29T08:37:13;98961.03;;;-3.63;28.78
42887;BME280;29032;56.028;92.904;2023-01-29T08:42:15;98924.63;;;-3.84;29.46
42887;BME280;29032;56.028;92.904;2023-01-29T08:47:17;98949.50;;;-3.82;28.72
42887;BME280;29032;56.028;92.904;2023-01-29T08:52:21;98943.34;;;-3.92;29.07
42887;BME280;29032;56.028;92.904;2023-01-29T08:57:23;98948.69;;;-3.97;29.17
42887;BME280;29032;56.028;92.904;2023-01-29T09:02:27;98939.13;;;-3.93;29.62
42887;BME280;29032;56.028;92.904;2023-01-29T09:07:30;98943.63;;;-3.90;29.72
42887;BME280;29032;56.028;92.904;2023-01-29T09:12:33;98945.34;;;-3.92;29.86
42887;BME280;29032;56.028;92.904;2023-01-29T09:17:35;98926.69;;;-3.94;29.77
42887;BME280;29032;56.028;92.904;2023-01-29T09:22:38;98926.56;;;-3.99;29.79
42887;BME280;29032;56.028;92.904;2023-01-29T09:27:41;98929.44;;;-4.18;29.57
42887;BME280;29032;56.028;92.904;2023-01-29T09:32:46;98925.03;;;-4.15;30.42
42887;BME280;29032;56.028;92.904;2023-01-29T09:37:50;98938.50;;;-4.12;30.08
42887;BME280;29032;56.028;92.904;2023-01-29T09:42:56;98935.25;;;-4.01;30.11
42887;BME280;29032;56.028;92.904;2023-01-29T09:48:02;98934.94;;;-4.03;30.33
42887;BME280;29032;56.028;92.904;2023-01-29T09:53:15;98939.34;;;-4.05;30.62
42887;BME280;29032;56.028;92.904;2023-01-29T09:58:23;98937.06;;;-4.22;30.59
42887;BME280;29032;56.028;92.904;2023-01-29T10:09:27;98950.47;;;-4.33;31.72
42887;BME280;29032;56.028;92.904;2023-01-29T10:14:38;98941.06;;;-4.32;31.08
42887;BME280;29032;56.028;92.904;2023-01-29T10:25:22;98952.56;;;-4.28;31.51
42887;BME280;29032;56.028;92.904;2023-01-29T10:30:30;98962.19;;;-4.18;31.89
42887;BME280;29032;56.028;92.904;2023-01-29T10:35:37;98955.81;;;-4.15;31.56
42887;BME280;29032;56.028;92.904;2023-01-29T10:40:50;98966.91;;;-4.18;31.61
42887;BME280;29032;56.028;92.904;2023-01-29T10:46:03;98979.88;;;-4.28;31.65
42887;BME280;29032;56.028;92.904;2023-01-29T10:51:21;98980.28;;;-4.44;32.13
42887;BME280;29032;56.028;92.904;2023-01-29T10:56:37;98979.56;;;-4.54;32.27
42887;BME280;29032;56.028;92.904;2023-01-29T11:01:43;98987.94;;;-4.67;32.34
42887;BME280;29032;56.028;92.904;2023-01-29T11:06:46;98995.84;;;-4.69;32.54
42887;BME280;29032;56.028;92.904;2023-01-29T11:12:00;98997.53;;;-4.71;32.69
42887;BME280;29032;56.028;92.904;2023-01-29T11:17:03;99005.59;;;-4.77;33.10
42887;BME280;29032;56.028;92.904;2023-01-29T11:22:12;99011.66;;;-4.73;33.49
42887;BME280;29032;56.028;92.904;2023-01-29T11:27:22;99023.53;;;-4.94;34.22
42887;BME280;29032;56.028;92.904;2023-01-29T11:32:25;99030.84;;;-5.09;34.35
42887;BME280;29032;56.028;92.904;2023-01-29T11:37:34;99027.22;;;-5.25;34.89
42887;BME280;29032;56.028;92.904;2023-01-29T11:42:41;99036.03;;;-5.48;35.46
42887;BME280;29032;56.028;92.904;2023-01-29T11:47:48;99046.16;;;-5.67;35.40
42887;BME280;29032;56.028;92.904;2023-01-29T11:52:51;99063.56;;;-5.92;36.07
42887;BME280;29032;56.028;92.904;2023-01-29T11:58:00;99073.38;;;-5.94;36.02
42887;BME280;29032;56.028;92.904;2023-01-29T12:03:06;99071.09;;;-6.05;36.22
42887;BME280;29032;56.028;92.904;2023-01-29T12:08:16;99077.09;;;-6.19;36.51
42887;BME280;29032;56.028;92.904;2023-01-29T12:13:37;99078.53;;;-6.37;36.56
42887;BME280;29032;56.028;92.904;2023-01-29T12:18:41;99090.91;;;-6.76;37.48
42887;BME280;29032;56.028;92.904;2023-01-29T12:23:51;99077.66;;;-6.96;38.02
42887;BME280;29032;56.028;92.904;2023-01-29T12:29:12;99077.91;;;-7.03;38.38
42887;BME280;29032;56.028;92.904;2023-01-29T12:34:22;99082.19;;;-7.15;39.08
42887;BME280;29032;56.028;92.904;2023-01-29T12:39:30;99093.81;;;-6.92;39.06
42887;BME280;29032;56.028;92.904;2023-01-29T12:44:37;99100.91;;;-6.73;38.95
42887;BME280;29032;56.028;92.904;2023-01-29T12:49:42;99091.16;;;-6.61;38.24
42887;BME280;29032;56.028;92.904;2023-01-29T12:54:49;99117.03;;;-6.78;39.51
42887;BME280;29032;56.028;92.904;2023-01-29T13:00:00;99113.75;;;-6.73;39.17
42887;BME280;29032;56.028;92.904;2023-01-29T13:05:17;99117.63;;;-6.84;39.10
42887;BME280;29032;56.028;92.904;2023-01-29T13:10:24;99121.78;;;-6.92;40.08
42887;BME280;29032;56.028;92.904;2023-01-29T13:15:33;99131.53;;;-6.81;40.13
42887;BME280;29032;56.028;92.904;2023-01-29T13:20:38;99127.91;;;-6.78;40.12
42887;BME280;29032;56.028;92.904;2023-01-29T13:25:41;99131.91;;;-6.70;40.46
42887;BME280;29032;56.028;92.904;2023-01-29T13:30:45;99145.00;;;-6.56;40.20
42887;BME280;29032;56.028;92.904;2023-01-29T13:35:48;99149.38;;;-6.49;40.22
42887;BME280;29032;56.028;92.904;2023-01-29T13:41:01;99168.63;;;-6.44;40.41
42887;BME280;29032;56.028;92.904;2023-01-29T13:46:09;99167.75;;;-6.41;40.32
42887;BME280;29032;56.028;92.904;2023-01-29T13:51:14;99167.75;;;-6.41;40.57
42887;BME280;29032;56.028;92.904;2023-01-29T13:56:29;99174.47;;;-6.23;40.22
42887;BME280;29032;56.028;92.904;2023-01-29T14:02:16;99179.38;;;-6.09;39.68
42887;BME280;29032;56.028;92.904;2023-01-29T14:07:48;99189.97;;;-6.11;39.96
42887;BME280;29032;56.028;92.904;2023-01-29T14:12:52;99195.44;;;-6.11;40.94
42887;BME280;29032;56.028;92.904;2023-01-29T14:23:26;99206.06;;;-5.95;41.49
42887;BME280;29032;56.028;92.904;2023-01-29T14:28:30;99210.59;;;-6.01;41.68
42887;BME280;29032;56.028;92.904;2023-01-29T14:33:37;99222.34;;;-5.82;41.29
42887;BME280;29032;56.028;92.904;2023-01-29T14:38:45;99222.22;;;-5.69;41.13
42887;BME280;29032;56.028;92.904;2023-01-29T14:43:48;99218.31;;;-5.68;40.95
42887;BME280;29032;56.028;92.904;2023-01-29T14:48:52;99224.03;;;-5.76;41.04
42887;BME280;29032;56.028;92.904;2023-01-29T14:53:58;99217.25;;;-5.71;41.25
42887;BME280;29032;56.028;92.904;2023-01-29T14:59:13;99230.13;;;-5.62;41.04
42887;BME280;29032;56.028;92.904;2023-01-29T15:04:21;99223.91;;;-5.63;41.46
42887;BME280;29032;56.028;92.904;2023-01-29T15:09:30;99228.91;;;-5.61;41.55
42887;BME280;29032;56.028;92.904;2023-01-29T15:14:37;99232.97;;;-5.66;41.52
42887;BME280;29032;56.028;92.904;2023-01-29T15:19:43;99238.88;;;-5.67;41.29
42887;BME280;29032;56.028;92.904;2023-01-29T15:24:47;99233.53;;;-5.80;41.31
42887;BME280;29032;56.028;92.904;2023-01-29T15:30:04;99238.84;;;-5.77;41.61
42887;BME280;29032;56.028;92.904;2023-01-29T15:35:10;99232.84;;;-5.62;41.58
42887;BME280;29032;56.028;92.904;2023-01-29T15:40:16;99229.50;;;-5.66;41.13
42887;BME280;29032;56.028;92.904;2023-01-29T15:45:26;99233.13;;;-5.69;41.19
42887;BME280;29032;56.028;92.904;2023-01-29T15:50:32;99243.56;;;-5.77;41.28
42887;BME280;29032;56.028;92.904;2023-01-29T15:55:36;99245.47;;;-5.87;41.42
42887;BME280;29032;56.028;92.904;2023-01-29T16:00:38;99241.81;;;-5.93;41.72
42887;BME280;29032;56.028;92.904;2023-01-29T16:05:42;99246.00;;;-6.01;40.87
42887;BME280;29032;56.028;92.904;2023-01-29T16:10:45;99244.00;;;-6.10;41.10
42887;BME280;29032;56.028;92.904;2023-01-29T16:15:55;99239.41;;;-5.91;40.15
42887;BME280;29032;56.028;92.904;2023-01-29T16:21:00;99241.28;;;-6.32;40.20
42887;BME280;29032;56.028;92.904;2023-01-29T16:26:06;99245.38;;;-6.71;41.33
42887;BME280;29032;56.028;92.904;2023-01-29T16:31:09;99242.56;;;-6.67;41.42
42887;BME280;29032;56.028;92.904;2023-01-29T16:36:16;99250.53;;;-6.51;41.21
42887;BME280;29032;56.028;92.904;2023-01-29T16:41:28;99264.88;;;-6.29;41.09
42887;BME280;29032;56.028;92.904;2023-01-29T16:46:34;99271.63;;;-6.20;42.13
42887;BME280;29032;56.028;92.904;2023-01-29T16:51:38;99294.28;;;-6.23;42.11
42887;BME280;29032;56.028;92.904;2023-01-29T16:56:43;99294.03;;;-6.38;41.18
42887;BME280;29032;56.028;92.904;2023-01-29T17:01:46;99296.47;;;-6.53;40.15
42887;BME280;29032;56.028;92.904;2023-01-29T17:06:56;99297.94;;;-7.08;41.76
42887;BME280;29032;56.028;92.904;2023-01-29T17:12:00;99300.69;;;-7.47;41.95
42887;BME280;29032;56.028;92.904;2023-01-29T17:17:05;99298.75;;;-7.59;41.95
42887;BME280;29032;56.028;92.904;2023-01-29T17:22:09;99306.53;;;-7.86;42.21
42887;BME280;29032;56.028;92.904;2023-01-29T17:27:17;99293.19;;;-7.81;41.62
42887;BME280;29032;56.028;92.904;2023-01-29T17:32:20;99314.78;;;-7.77;41.85
42887;BME280;29032;56.028;92.904;2023-01-29T17:37:23;99309.69;;;-7.88;42.05
42887;BME280;29032;56.028;92.904;2023-01-29T17:42:25;99311.94;;;-7.99;42.72
42887;BME280;29032;56.028;92.904;2023-01-29T17:47:27;99308.56;;;-8.03;43.30
42887;BME280;29032;56.028;92.904;2023-01-29T17:52:31;99328.03;;;-7.92;42.85
42887;BME280;29032;56.028;92.904;2023-01-29T17:57:33;99328.38;;;-7.90;43.96
42887;BME280;29032;56.028;92.904;2023-01-29T18:02:35;99338.91;;;-7.79;44.18
42887;BME280;29032;56.028;92.904;2023-01-29T18:07:41;99346.13;;;-7.60;43.96
42887;BME280;29032;56.028;92.904;2023-01-29T18:12:44;99356.53;;;-7.71;45.09
42887;BME280;29032;56.028;92.904;2023-01-29T18:17:46;99349.88;;;-7.83;44.92
42887;BME280;29032;56.028;92.904;2023-01-29T18:22:50;99370.38;;;-7.95;44.30
42887;BME280;29032;56.028;92.904;2023-01-29T18:27:52;99376.84;;;-8.05;43.56
42887;BME280;29032;56.028;92.904;2023-01-29T18:32:54;99392.69;;;-8.16;42.77
42887;BME280;29032;56.028;92.904;2023-01-29T18:37:58;99402.38;;;-8.31;42.19
42887;BME280;29032;56.028;92.904;2023-01-29T18:43:00;99411.91;;;-8.39;41.30
42887;BME280;29032;56.028;92.904;2023-01-29T18:48:02;99409.88;;;-8.52;40.68
42887;BME280;29032;56.028;92.904;2023-01-29T18:53:06;99424.38;;;-8.74;39.98
42887;BME280;29032;56.028;92.904;2023-01-29T18:58:08;99432.75;;;-8.85;40.41
42887;BME280;29032;56.028;92.904;2023-01-29T19:03:10;99440.50;;;-9.04;40.34
42887;BME280;29032;56.028;92.904;2023-01-29T19:08:14;99449.66;;;-9.34;40.11
42887;BME280;29032;56.028;92.904;2023-01-29T19:13:16;99442.97;;;-9.45;41.02
42887;BME280;29032;56.028;92.904;2023-01-29T19:18:18;99444.34;;;-9.37;41.01
42887;BME280;29032;56.028;92.904;2023-01-29T19:23:21;99453.22;;;-9.17;40.71
42887;BME280;29032;56.028;92.904;2023-01-29T19:28:24;99464.84;;;-9.00;40.71
42887;BME280;29032;56.028;92.904;2023-01-29T19:33:26;99468.16;;;-8.92;41.02
42887;BME280;29032;56.028;92.904;2023-01-29T19:38:30;99477.16;;;-8.79;41.07
42887;BME280;29032;56.028;92.904;2023-01-29T19:43:33;99478.78;;;-8.82;39.85
42887;BME280;29032;56.028;92.904;2023-01-29T19:48:35;99486.78;;;-8.94;40.78
42887;BME280;29032;56.028;92.904;2023-01-29T19:53:43;99497.47;;;-8.87;40.48
42887;BME280;29032;56.028;92.904;2023-01-29T19:58:47;99506.50;;;-8.74;40.21
42887;BME280;29032;56.028;92.904;2023-01-29T20:03:51;99508.00;;;-8.73;40.29
42887;BME280;29032;56.028;92.904;2023-01-29T20:09:00;99511.91;;;-8.74;40.20
42887;BME280;29032;56.028;92.904;2023-01-29T20:14:02;99528.34;;;-8.81;40.42
42887;BME280;29032;56.028;92.904;2023-01-29T20:19:04;99527.47;;;-8.78;41.12
42887;BME280;29032;56.028;92.904;2023-01-29T20:24:12;99533.34;;;-8.63;40.26
42887;BME280;29032;56.028;92.904;2023-01-29T20:29:17;99531.38;;;-8.79;41.18
42887;BME280;29032;56.028;92.904;2023-01-29T20:34:19;99533.81;;;-8.85;40.53
42887;BME280;29032;56.028;92.904;2023-01-29T20:39:22;99541.00;;;-8.94;40.53
42887;BME280;29032;56.028;92.904;2023-01-29T20:44:25;99535.25;;;-9.16;40.65
42887;BME280;29032;56.028;92.904;2023-01-29T20:49:27;99531.72;;;-9.33;40.66
42887;BME280;29032;56.028;92.904;2023-01-29T20:54:41;99528.66;;;-9.35;41.65
42887;BME280;29032;56.028;92.904;2023-01-29T20:59:43;99536.34;;;-9.53;41.92
42887;BME280;29032;56.028;92.904;2023-01-29T21:04:46;99531.19;;;-9.68;41.91
42887;BME280;29032;56.028;92.904;2023-01-29T21:09:49;99542.78;;;-9.87;42.40
42887;BME280;29032;56.028;92.904;2023-01-29T21:14:52;99545.47;;;-10.10;42.41
42887;BME280;29032;56.028;92.904;2023-01-29T21:19:54;99545.84;;;-10.08;42.64
42887;BME280;29032;56.028;92.904;2023-01-29T21:24:57;99549.22;;;-10.04;43.41
42887;BME280;29032;56.028;92.904;2023-01-29T21:29:59;99555.75;;;-10.02;42.79
42887;BME280;29032;56.028;92.904;2023-01-29T21:35:02;99558.56;;;-10.09;43.70
42887;BME280;29032;56.028;92.904;2023-01-29T21:40:07;99558.47;;;-10.02;42.83
42887;BME280;29032;56.028;92.904;2023-01-29T21:45:09;99570.00;;;-9.98;43.21
42887;BME280;29032;56.028;92.904;2023-01-29T21:50:12;99559.34;;;-9.85;43.34
42887;BME280;29032;56.028;92.904;2023-01-29T21:55:15;99571.81;;;-9.68;43.07
42887;BME280;29032;56.028;92.904;2023-01-29T22:00:21;99580.19;;;-9.58;42.05
42887;BME280;29032;56.028;92.904;2023-01-29T22:05:24;99584.13;;;-9.87;42.87
42887;BME280;29032;56.028;92.904;2023-01-29T22:10:27;99579.94;;;-9.91;42.84
42887;BME280;29032;56.028;92.904;2023-01-29T22:15:29;99573.78;;;-9.92;43.14
42887;BME280;29032;56.028;92.904;2023-01-29T22:20:32;99584.25;;;-9.94;43.19
42887;BME280;29032;56.028;92.904;2023-01-29T22:25:35;99587.19;;;-9.84;42.93
42887;BME280;29032;56.028;92.904;2023-01-29T22:30:37;99592.59;;;-9.84;43.50
42887;BME280;29032;56.028;92.904;2023-01-29T22:35:39;99602.31;;;-9.87;43.73
42887;BME280;29032;56.028;92.904;2023-01-29T22:40:49;99618.72;;;-9.74;43.62
42887;BME280;29032;56.028;92.904;2023-01-29T22:45:51;99604.91;;;-9.80;43.98
42887;BME280;29032;56.028;92.904;2023-01-29T22:50:57;99612.38;;;-9.88;44.29
42887;BME280;29032;56.028;92.904;2023-01-29T22:56:01;99612.13;;;-9.97;44.14
42887;BME280;29032;56.028;92.904;2023-01-29T23:01:04;99612.53;;;-9.98;44.88
42887;BME280;29032;56.028;92.904;2023-01-29T23:06:06;99618.56;;;-9.87;44.06
42887;BME280;29032;56.028;92.904;2023-01-29T23:11:15;99617.84;;;-9.91;44.67
42887;BME280;29032;56.028;92.904;2023-01-29T23:16:22;99617.84;;;-9.91;45.02
42887;BME280;29032;56.028;92.904;2023-01-29T23:21:25;99629.38;;;-9.87;45.26
42887;BME280;29032;56.028;92.904;2023-01-29T23:26:29;99618.44;;;-9.80;44.15
42887;BME280;29032;56.028;92.904;2023-01-29T23:31:31;99597.72;;;-9.90;44.70
42887;BME280;29032;56.028;92.904;2023-01-29T23:36:33;99619.22;;;-9.79;44.97
42887;BME280;29032;56.028;92.904;2023-01-29T23:41:39;99628.16;;;-9.59;44.44
42887;BME280;29032;56.028;92.904;2023-01-29T23:46:42;99623.84;;;-9.56;43.82
42887;BME280;29032;56.028;92.904;2023-01-29T23:51:45;99608.66;;;-9.50;43.47
42887;BME280;29032;56.028;92.904;2023-01-29T23:56:49;99610.66;;;-9.31;42.87
